Time;durP1;ratioP1;P1;durP2;ratioP2;P2;SDS_P1;SDS_P2;PMS_P1;PMS_P2;Temp;Humidity;BMP_temperature;BMP_pressure;BME280_temperature;BME280_humidity;BME280_pressure;Samples;Min_cycle;Max_cycle;Signal;HPM_P1;HPM_P2
2022/11/16 00:01:13;;;;;;;10.65;8.23;;;11.70;99.90;;;;;;5073178;28;20258;-84
2022/11/16 00:03:39;;;;;;;16.40;9.82;;;11.70;99.90;;;;;;5071805;28;20262;-84
2022/11/16 00:06:07;;;;;;;14.38;9.60;;;11.70;99.90;;;;;;5071368;28;20198;-84
2022/11/16 00:09:21;;;;;;;12.30;9.68;;;11.70;99.90;;;;;;5086910;28;20186;-84
2022/11/16 00:11:32;;;;;;;12.90;9.15;;;11.80;99.90;;;;;;5065985;28;20186;-85
2022/11/16 00:13:58;;;;;;;13.18;9.75;;;11.70;99.90;;;;;;5070922;28;20190;-84
2022/11/16 00:16:24;;;;;;;11.23;9.25;;;11.70;99.90;;;;;;5064646;28;20767;-87
2022/11/16 00:18:55;;;;;;;11.95;9.23;;;11.70;99.90;;;;;;5055229;28;20187;-85
2022/11/16 00:21:21;;;;;;;12.50;9.43;;;11.70;99.90;;;;;;5086296;28;20190;-84
2022/11/16 00:23:46;;;;;;;12.70;9.43;;;11.70;99.90;;;;;;5080474;28;20191;-84
2022/11/16 00:26:12;;;;;;;14.13;9.80;;;11.70;99.90;;;;;;5058780;28;20240;-84
2022/11/16 00:28:38;;;;;;;13.15;9.45;;;11.70;99.90;;;;;;5070106;28;20244;-84
2022/11/16 00:31:05;;;;;;;14.70;10.55;;;11.80;99.90;;;;;;5070372;28;20183;-83
2022/11/16 00:33:32;;;;;;;12.55;10.45;;;11.80;99.90;;;;;;5063076;28;20215;-86
2022/11/16 00:36:00;;;;;;;13.73;10.23;;;11.80;99.90;;;;;;5063485;28;20193;-84
2022/11/16 00:38:26;;;;;;;14.00;10.43;;;11.80;99.90;;;;;;5059075;28;20186;-84
2022/11/16 00:40:52;;;;;;;15.35;10.65;;;11.70;99.90;;;;;;5064265;28;20190;-84
2022/11/16 00:43:18;;;;;;;13.13;10.63;;;11.70;99.90;;;;;;5069116;28;20285;-84
2022/11/16 00:45:44;;;;;;;13.82;10.25;;;11.80;99.90;;;;;;5070087;28;20212;-84
2022/11/16 00:48:09;;;;;;;15.80;11.02;;;11.70;99.90;;;;;;5087383;28;20637;-84
2022/11/16 00:50:36;;;;;;;15.23;10.32;;;11.70;99.90;;;;;;5071525;28;20214;-82
2022/11/16 00:53:01;;;;;;;15.10;11.18;;;11.70;99.90;;;;;;5071586;28;20265;-84
2022/11/16 00:55:28;;;;;;;15.05;11.05;;;11.70;99.90;;;;;;5067982;28;20273;-84
2022/11/16 00:57:55;;;;;;;16.10;11.13;;;11.70;99.90;;;;;;5062309;28;20214;-85
2022/11/16 01:00:22;;;;;;;13.63;11.35;;;11.70;99.90;;;;;;5054107;28;20182;-84
2022/11/16 01:02:51;;;;;;;14.27;10.52;;;11.70;99.90;;;;;;5065017;28;20639;-84
2022/11/16 01:05:17;;;;;;;13.38;10.32;;;11.80;99.90;;;;;;5074939;28;20277;-85
2022/11/16 01:07:43;;;;;;;12.40;10.00;;;11.70;99.90;;;;;;5068897;28;20186;-84
2022/11/16 01:10:14;;;;;;;12.50;10.10;;;11.70;99.90;;;;;;5068619;28;20383;-84
2022/11/16 01:12:41;;;;;;;12.95;10.10;;;11.80;99.90;;;;;;5053925;28;20233;-84
2022/11/16 01:15:08;;;;;;;13.07;10.23;;;11.70;99.90;;;;;;5059186;28;20183;-85
2022/11/16 01:17:35;;;;;;;18.55;11.45;;;11.70;99.90;;;;;;5053269;28;20267;-84
2022/11/16 01:20:04;;;;;;;14.30;11.23;;;11.70;99.90;;;;;;5082410;28;20722;-86
2022/11/16 01:22:33;;;;;;;14.63;11.35;;;11.70;99.90;;;;;;5064042;28;20183;-84
2022/11/16 01:24:59;;;;;;;15.35;11.18;;;11.80;99.90;;;;;;5091890;28;20193;-84
2022/11/16 01:27:26;;;;;;;14.25;10.57;;;11.70;99.90;;;;;;5061632;28;20183;-84
2022/11/16 01:29:53;;;;;;;14.10;10.20;;;11.70;99.90;;;;;;5072092;28;20619;-84
2022/11/16 01:32:19;;;;;;;14.43;10.93;;;11.70;99.90;;;;;;5073919;28;20301;-84
2022/11/16 01:34:45;;;;;;;14.35;10.68;;;11.80;99.90;;;;;;5074909;28;20186;-84
2022/11/16 01:37:21;;;;;;;15.45;10.88;;;11.80;99.90;;;;;;5064907;28;20304;-85
2022/11/16 01:39:48;;;;;;;14.20;10.38;;;11.80;99.90;;;;;;5061624;28;20183;-85
2022/11/16 01:42:19;;;;;;;13.13;10.30;;;11.80;99.90;;;;;;5067428;28;22427;-85
2022/11/16 01:44:46;;;;;;;16.52;10.68;;;11.80;99.90;;;;;;5060296;28;20223;-85
2022/11/16 01:47:16;;;;;;;12.63;10.20;;;11.80;99.90;;;;;;5067081;28;20606;-85
2022/11/16 01:49:53;;;;;;;15.55;10.55;;;11.80;99.90;;;;;;5065920;28;20630;-84
2022/11/16 01:52:28;;;;;;;14.63;10.27;;;11.80;99.90;;;;;;5057572;28;20226;-86
2022/11/16 01:54:54;;;;;;;14.75;10.27;;;11.80;99.90;;;;;;5073780;28;20182;-84
2022/11/16 01:57:27;;;;;;;15.13;10.38;;;11.70;99.90;;;;;;5055468;28;20781;-85
2022/11/16 02:00:05;;;;;;;12.07;9.88;;;11.80;99.90;;;;;;5048757;28;20194;-84
2022/11/16 02:02:39;;;;;;;16.85;10.50;;;11.70;99.90;;;;;;5072748;28;20596;-84
2022/11/16 02:05:11;;;;;;;13.75;10.57;;;11.80;99.90;;;;;;5089532;28;20555;-84
2022/11/16 02:11:05;;;;;;;14.50;9.85;;;11.80;99.90;;;;;;5067389;28;20210;-84
2022/11/16 02:13:44;;;;;;;15.55;10.60;;;11.80;99.90;;;;;;5062579;28;20554;-85
2022/11/16 02:16:33;;;;;;;12.93;9.85;;;11.70;99.90;;;;;;5086554;28;20606;-84
2022/11/16 02:19:46;;;;;;;15.60;10.43;;;11.80;99.90;;;;;;5045621;28;20227;-87
2022/11/16 02:22:48;;;;;;;13.88;9.63;;;11.80;99.90;;;;;;5061422;28;20198;-83
2022/11/16 02:25:25;;;;;;;15.35;10.00;;;11.80;99.90;;;;;;5062062;28;20224;-86
2022/11/16 02:28:25;;;;;;;13.45;9.75;;;11.80;99.90;;;;;;5061117;28;20296;-85
2022/11/16 02:30:52;;;;;;;16.63;9.18;;;11.80;99.90;;;;;;5070638;28;20193;-85
2022/11/16 02:33:23;;;;;;;16.75;10.15;;;11.80;99.90;;;;;;5071182;28;20186;-85
2022/11/16 02:35:53;;;;;;;15.48;9.45;;;11.80;99.90;;;;;;5073391;28;20209;-85
2022/11/16 02:38:26;;;;;;;12.20;8.93;;;11.80;99.90;;;;;;5072354;28;20249;-85
2022/11/16 02:40:57;;;;;;;13.07;9.27;;;11.90;99.90;;;;;;5072466;28;20174;-85
2022/11/16 02:43:35;;;;;;;16.52;9.48;;;11.80;99.90;;;;;;5068420;28;20198;-87
2022/11/16 02:46:10;;;;;;;12.00;9.07;;;11.80;99.90;;;;;;5061903;28;20277;-86
2022/11/16 02:48:42;;;;;;;14.75;9.02;;;11.80;99.90;;;;;;5073291;28;20671;-85
2022/11/16 02:51:10;;;;;;;13.30;8.95;;;11.80;99.90;;;;;;5072163;28;20186;-85
2022/11/16 02:53:40;;;;;;;11.43;8.82;;;11.90;99.90;;;;;;5055139;28;20230;-85
2022/11/16 02:56:12;;;;;;;13.40;8.65;;;11.80;99.90;;;;;;5085291;28;20187;-86
2022/11/16 02:58:38;;;;;;;14.07;9.25;;;11.80;99.90;;;;;;5082363;28;20642;-85
2022/11/16 03:01:14;;;;;;;12.77;8.98;;;11.80;99.90;;;;;;5065821;28;20232;-85
2022/11/16 03:03:57;;;;;;;12.48;8.88;;;11.80;99.90;;;;;;5072445;28;20184;-85
2022/11/16 03:06:28;;;;;;;15.57;9.10;;;11.80;99.90;;;;;;5060813;28;20182;-85
2022/11/16 03:09:26;;;;;;;13.90;9.10;;;11.80;99.90;;;;;;5056922;28;20247;-83
2022/11/16 03:11:58;;;;;;;13.25;8.98;;;11.80;99.90;;;;;;5052560;28;20543;-85
2022/11/16 03:14:34;;;;;;;14.40;9.93;;;11.80;99.90;;;;;;5079547;28;20176;-84
2022/11/16 03:17:02;;;;;;;14.45;9.35;;;11.80;99.90;;;;;;5064723;28;20241;-83
2022/11/16 03:19:37;;;;;;;16.90;9.93;;;11.80;99.90;;;;;;5073829;28;20179;-83
2022/11/16 03:22:25;;;;;;;13.57;9.20;;;11.80;99.90;;;;;;5070421;28;20267;-84
2022/11/16 03:24:51;;;;;;;12.45;9.27;;;11.80;99.90;;;;;;5069615;28;20274;-83
2022/11/16 03:27:36;;;;;;;12.73;9.50;;;11.70;99.90;;;;;;5061559;28;20216;-83
2022/11/16 03:30:08;;;;;;;14.93;10.25;;;11.70;99.90;;;;;;5078179;28;20556;-85
2022/11/16 03:33:14;;;;;;;14.30;10.07;;;11.80;99.90;;;;;;5075114;28;20173;-84
2022/11/16 03:36:10;;;;;;;14.38;9.60;;;11.70;99.90;;;;;;5065884;28;20214;-85
2022/11/16 03:38:39;;;;;;;14.05;9.80;;;11.70;99.90;;;;;;5079666;28;20227;-84
2022/11/16 03:41:07;;;;;;;16.23;9.98;;;11.70;99.90;;;;;;5051962;28;20171;-83
2022/11/16 03:43:33;;;;;;;13.77;10.30;;;11.70;99.90;;;;;;5081751;28;20194;-84
2022/11/16 03:46:01;;;;;;;16.48;10.38;;;11.70;99.90;;;;;;5080302;28;20179;-85
2022/11/16 03:48:34;;;;;;;15.13;10.15;;;11.70;99.90;;;;;;5042727;28;20186;-84
2022/11/16 03:51:03;;;;;;;13.65;10.23;;;11.70;99.90;;;;;;5055601;28;20232;-84
2022/11/16 03:53:29;;;;;;;13.57;10.35;;;11.70;99.90;;;;;;5072497;28;20189;-84
2022/11/16 03:55:55;;;;;;;17.40;10.15;;;11.70;99.90;;;;;;5071091;28;20178;-81
2022/11/16 03:58:20;;;;;;;15.07;10.75;;;11.70;99.90;;;;;;5084703;28;20225;-83
2022/11/16 04:00:46;;;;;;;16.20;10.98;;;11.70;99.90;;;;;;5070404;28;20187;-82
2022/11/16 04:03:12;;;;;;;14.25;10.77;;;11.70;99.90;;;;;;5066667;28;20190;-83
2022/11/16 04:25:20;;;;;;;17.08;12.02;;;11.60;99.90;;;;;;5052172;28;20187;-83
2022/11/16 04:38:44;;;;;;;16.55;12.32;;;11.60;99.90;;;;;;5085029;28;20230;-83
2022/11/16 04:42:13;;;;;;;18.45;12.48;;;11.60;99.90;;;;;;5071020;28;20192;-82
2022/11/16 04:43:57;;;;;;;19.23;13.23;;;11.60;99.90;;;;;;5066339;28;20185;-82
2022/11/16 04:49:07;;;;;;;24.63;13.00;;;11.50;99.90;;;;;;5071001;28;20197;-82
2022/11/16 04:51:33;;;;;;;19.55;13.48;;;11.60;99.90;;;;;;5054776;28;20167;-82
2022/11/16 04:53:58;;;;;;;18.92;13.85;;;11.50;99.90;;;;;;5070886;28;20290;-83
2022/11/16 04:56:24;;;;;;;20.40;13.10;;;11.60;99.90;;;;;;5054835;28;20598;-82
2022/11/16 04:58:50;;;;;;;20.05;13.20;;;11.50;99.90;;;;;;5072069;28;20183;-82
2022/11/16 05:01:16;;;;;;;17.73;13.60;;;11.60;99.90;;;;;;5090500;28;20193;-82
2022/11/16 05:03:42;;;;;;;18.77;13.73;;;11.50;99.90;;;;;;5056956;28;20285;-81
2022/11/16 05:06:08;;;;;;;19.42;12.88;;;11.50;99.90;;;;;;5090714;28;20261;-83
2022/11/16 05:08:33;;;;;;;20.38;13.75;;;11.50;99.90;;;;;;5061834;28;20551;-81
2022/11/16 05:10:59;;;;;;;22.45;14.65;;;11.50;99.90;;;;;;5074394;28;20185;-84
2022/11/16 05:13:25;;;;;;;20.65;14.13;;;11.50;99.90;;;;;;5062586;28;20183;-83
2022/11/16 05:15:52;;;;;;;22.75;15.15;;;11.50;99.90;;;;;;5058030;28;20711;-83
2022/11/16 05:18:17;;;;;;;20.52;14.10;;;11.50;99.90;;;;;;5073585;28;20211;-84
2022/11/16 05:21:01;;;;;;;19.35;14.32;;;11.50;99.90;;;;;;5074983;28;20185;-83
2022/11/16 05:26:19;;;;;;;18.85;13.77;;;11.50;99.90;;;;;;5064876;28;20194;-83
2022/11/16 05:28:45;;;;;;;23.48;15.02;;;11.40;99.90;;;;;;5040863;28;20182;-82
2022/11/16 05:31:12;;;;;;;20.88;15.35;;;11.40;99.90;;;;;;5072047;28;20669;-83
2022/11/16 05:33:38;;;;;;;26.25;16.65;;;11.50;99.90;;;;;;5030633;28;20190;-85
2022/11/16 05:36:04;;;;;;;21.55;14.75;;;11.50;99.90;;;;;;5057860;28;20205;-82
2022/11/16 05:38:30;;;;;;;22.40;15.20;;;11.50;99.90;;;;;;5039830;28;20233;-83
2022/11/16 05:40:58;;;;;;;23.17;16.20;;;11.50;99.90;;;;;;5074140;28;20706;-82
2022/11/16 05:43:24;;;;;;;24.17;16.60;;;11.50;99.90;;;;;;5073503;28;20178;-79
2022/11/16 05:45:58;;;;;;;25.95;16.60;;;11.50;99.90;;;;;;5090421;28;20995;-80
2022/11/16 05:48:24;;;;;;;21.33;16.15;;;11.50;99.90;;;;;;5061948;28;20180;-79
2022/11/16 05:50:56;;;;;;;23.20;16.08;;;11.50;99.90;;;;;;5056075;28;20184;-79
2022/11/16 05:53:24;;;;;;;23.92;15.55;;;11.50;99.90;;;;;;5082499;28;20641;-80
2022/11/16 05:55:50;;;;;;;23.40;16.50;;;11.50;99.90;;;;;;5074164;28;20183;-79
2022/11/16 05:58:17;;;;;;;21.88;16.65;;;11.50;99.90;;;;;;5070665;28;20213;-79
2022/11/16 06:00:45;;;;;;;23.00;16.80;;;11.50;99.90;;;;;;5072649;28;20688;-81
2022/11/16 06:03:11;;;;;;;27.33;17.48;;;11.50;99.90;;;;;;5064311;28;20282;-79
2022/11/16 06:05:37;;;;;;;28.52;19.08;;;11.50;99.90;;;;;;5084059;28;20729;-79
2022/11/16 06:08:03;;;;;;;31.48;18.73;;;11.50;99.90;;;;;;5083166;28;20186;-79
2022/11/16 06:10:29;;;;;;;25.38;18.98;;;11.50;99.90;;;;;;5072086;28;20214;-81
2022/11/16 06:12:56;;;;;;;27.80;19.63;;;11.50;99.90;;;;;;5077856;28;20185;-79
2022/11/16 06:15:22;;;;;;;29.65;20.27;;;11.50;99.90;;;;;;5072667;28;20272;-78
2022/11/16 06:17:48;;;;;;;28.20;19.52;;;11.50;99.90;;;;;;5072940;28;20674;-78
2022/11/16 06:20:15;;;;;;;30.48;20.15;;;11.50;99.90;;;;;;5073008;28;20210;-78
2022/11/16 06:22:42;;;;;;;28.63;20.20;;;11.50;99.90;;;;;;5073826;28;20187;-81
2022/11/16 06:25:09;;;;;;;27.38;20.20;;;11.50;99.90;;;;;;5072762;28;20522;-79
2022/11/16 06:27:39;;;;;;;29.33;19.70;;;11.40;99.90;;;;;;5068694;28;20187;-79
2022/11/16 06:30:06;;;;;;;28.98;20.42;;;11.50;99.90;;;;;;5051899;28;20227;-78
2022/11/16 06:32:32;;;;;;;26.77;20.52;;;11.50;99.90;;;;;;5068964;28;20187;-78
2022/11/16 06:34:58;;;;;;;27.90;19.33;;;11.40;99.90;;;;;;5071120;28;20345;-78
2022/11/16 06:37:24;;;;;;;30.27;20.17;;;11.50;99.90;;;;;;5062159;28;20309;-78
2022/11/16 06:39:50;;;;;;;29.83;21.73;;;11.50;99.90;;;;;;5071832;28;20265;-78
2022/11/16 06:42:16;;;;;;;31.73;21.67;;;11.50;99.90;;;;;;5070904;28;20186;-78
2022/11/16 06:44:42;;;;;;;31.90;21.67;;;11.50;99.90;;;;;;5072190;28;20216;-78
2022/11/16 06:47:14;;;;;;;27.52;19.25;;;11.50;99.90;;;;;;5066908;28;20459;-78
2022/11/16 06:49:40;;;;;;;27.52;19.50;;;11.50;99.90;;;;;;5067779;28;20229;-78
2022/11/16 06:52:12;;;;;;;24.98;18.20;;;11.50;99.90;;;;;;5070247;28;20191;-77
2022/11/16 06:54:38;;;;;;;26.38;18.00;;;11.50;99.90;;;;;;5068174;28;20187;-78
2022/11/16 06:57:04;;;;;;;25.05;17.98;;;11.50;99.90;;;;;;5085858;28;20203;-77
2022/11/16 06:59:30;;;;;;;27.90;18.30;;;11.50;99.90;;;;;;5071793;28;20213;-78
2022/11/16 07:01:56;;;;;;;22.15;16.98;;;11.50;99.90;;;;;;5045652;28;20656;-79
2022/11/16 07:04:22;;;;;;;24.45;17.25;;;11.60;99.90;;;;;;5069764;28;20197;-80
2022/11/16 07:06:52;;;;;;;23.88;16.63;;;11.60;99.90;;;;;;5076195;28;20286;-77
2022/11/16 07:09:18;;;;;;;23.92;16.73;;;11.60;99.90;;;;;;5045182;28;20324;-80
2022/11/16 07:11:45;;;;;;;23.30;16.40;;;11.70;99.90;;;;;;5052455;28;20557;-77
2022/11/16 07:14:13;;;;;;;21.30;15.93;;;11.60;99.90;;;;;;5068981;28;20528;-79
2022/11/16 07:16:40;;;;;;;21.27;15.07;;;11.60;99.90;;;;;;5088154;28;20217;-79
2022/11/16 07:19:06;;;;;;;18.45;13.70;;;11.70;99.90;;;;;;5070877;28;20189;-79
2022/11/16 07:21:34;;;;;;;18.40;14.60;;;11.70;99.90;;;;;;5053767;28;20195;-78
2022/11/16 07:24:03;;;;;;;19.10;15.18;;;11.70;99.90;;;;;;5071136;28;20190;-78
2022/11/16 07:26:34;;;;;;;18.08;14.73;;;11.70;99.90;;;;;;5070668;28;20190;-78
2022/11/16 07:29:14;;;;;;;20.45;15.27;;;11.70;99.90;;;;;;5069697;28;20634;-78
2022/11/16 07:31:45;;;;;;;18.90;14.27;;;11.70;99.90;;;;;;5070224;28;20552;-79
2022/11/16 07:34:46;;;;;;;20.92;14.48;;;11.70;99.90;;;;;;5055937;28;20273;-78
2022/11/16 07:37:15;;;;;;;18.30;14.65;;;11.70;99.90;;;;;;5084662;28;20218;-79
2022/11/16 07:39:42;;;;;;;18.17;14.60;;;11.70;99.90;;;;;;5071386;28;20368;-79
2022/11/16 07:42:10;;;;;;;16.98;13.57;;;11.70;99.90;;;;;;5070544;28;20194;-78
2022/11/16 07:45:02;;;;;;;18.33;14.27;;;11.70;99.90;;;;;;5051631;28;20199;-79
2022/11/16 07:47:36;;;;;;;18.55;14.20;;;11.70;99.90;;;;;;5078925;28;20205;-78
2022/11/16 07:50:04;;;;;;;18.42;13.68;;;11.70;99.90;;;;;;5057671;28;20190;-79
2022/11/16 07:52:32;;;;;;;19.10;13.82;;;11.70;99.90;;;;;;5084594;28;20187;-78
2022/11/16 07:55:06;;;;;;;17.67;13.05;;;11.70;99.90;;;;;;5069940;28;20258;-78
2022/11/16 07:57:33;;;;;;;18.85;14.50;;;11.80;99.90;;;;;;5043140;28;20279;-78
2022/11/16 08:00:04;;;;;;;16.38;12.80;;;11.80;99.90;;;;;;5071955;28;20239;-78
2022/11/16 08:02:39;;;;;;;19.83;14.27;;;11.80;99.90;;;;;;5071853;28;20193;-78
2022/11/16 08:05:07;;;;;;;18.95;12.85;;;11.80;99.90;;;;;;5095507;28;20629;-78
2022/11/16 08:07:34;;;;;;;21.25;13.18;;;11.80;99.90;;;;;;5065314;28;20190;-79
2022/11/16 08:10:00;;;;;;;18.38;13.40;;;11.80;99.90;;;;;;5085326;28;20643;-78
2022/11/16 08:12:26;;;;;;;20.83;13.88;;;11.80;99.90;;;;;;5063192;28;20185;-78
2022/11/16 08:14:53;;;;;;;18.75;14.80;;;11.80;99.90;;;;;;5071716;28;20198;-78
2022/11/16 08:17:19;;;;;;;18.08;14.75;;;11.80;99.90;;;;;;5062072;28;20225;-79
2022/11/16 08:19:45;;;;;;;20.77;15.10;;;11.80;99.90;;;;;;5065708;28;20187;-79
2022/11/16 08:22:14;;;;;;;18.13;15.05;;;11.80;99.90;;;;;;5081562;28;20969;-79
2022/11/16 08:24:40;;;;;;;19.65;16.00;;;11.70;99.90;;;;;;5060659;28;20190;-79
2022/11/16 08:27:07;;;;;;;22.85;17.48;;;11.80;99.90;;;;;;5068372;28;20241;-79
2022/11/16 08:29:33;;;;;;;22.35;18.27;;;11.70;99.90;;;;;;5061300;28;20191;-78
2022/11/16 08:32:01;;;;;;;25.23;18.63;;;11.70;99.90;;;;;;5068134;28;20286;-79
2022/11/16 08:34:27;;;;;;;27.80;18.80;;;11.70;99.90;;;;;;5088486;28;20281;-78
2022/11/16 08:36:57;;;;;;;26.10;17.52;;;11.70;99.90;;;;;;5069501;28;20229;-78
2022/11/16 08:39:31;;;;;;;22.35;17.45;;;11.70;99.90;;;;;;5057286;28;20260;-80
2022/11/16 08:41:57;;;;;;;23.38;16.80;;;11.80;99.90;;;;;;5057637;28;20667;-79
2022/11/16 08:44:23;;;;;;;23.10;16.83;;;11.70;99.90;;;;;;5052696;28;20203;-79
2022/11/16 08:46:52;;;;;;;26.00;17.65;;;11.70;99.90;;;;;;5088542;28;20179;-79
2022/11/16 08:49:28;;;;;;;21.35;16.60;;;11.70;99.90;;;;;;5054686;28;20542;-79
2022/11/16 08:51:54;;;;;;;24.92;18.30;;;11.70;99.90;;;;;;5063064;28;20187;-81
2022/11/16 08:54:20;;;;;;;23.88;17.90;;;11.70;99.90;;;;;;5078555;28;20630;-77
2022/11/16 08:56:47;;;;;;;24.65;17.83;;;11.70;99.90;;;;;;5062980;28;20210;-80
2022/11/16 08:59:13;;;;;;;26.60;18.35;;;11.70;99.90;;;;;;5051583;28;20190;-80
2022/11/16 09:01:44;;;;;;;23.98;17.73;;;11.60;99.90;;;;;;5072275;28;20190;-79
2022/11/16 09:04:10;;;;;;;23.17;18.35;;;11.60;99.90;;;;;;5062729;28;20187;-81
2022/11/16 09:06:36;;;;;;;23.15;18.20;;;11.60;99.90;;;;;;5067171;28;20656;-79
2022/11/16 09:09:02;;;;;;;26.13;19.40;;;11.60;99.90;;;;;;5067162;28;20274;-79
2022/11/16 09:11:28;;;;;;;26.08;19.92;;;11.60;99.90;;;;;;5062747;28;20300;-80
2022/11/16 09:13:54;;;;;;;32.63;21.00;;;11.60;99.90;;;;;;5067545;28;21112;-81
2022/11/16 09:16:21;;;;;;;34.47;22.65;;;11.60;99.90;;;;;;5072307;28;20182;-79
2022/11/16 09:18:49;;;;;;;30.10;21.17;;;11.60;99.90;;;;;;5067180;28;20202;-79
2022/11/16 09:21:23;;;;;;;28.77;21.15;;;11.60;99.90;;;;;;5072148;28;20257;-79
2022/11/16 09:23:49;;;;;;;28.73;20.27;;;11.70;99.90;;;;;;5071157;28;20660;-80
2022/11/16 09:26:17;;;;;;;28.35;19.75;;;11.70;99.90;;;;;;5059166;28;20211;-79
2022/11/16 09:28:43;;;;;;;25.50;19.70;;;11.70;99.90;;;;;;5056732;28;20713;-80
2022/11/16 09:31:09;;;;;;;25.60;19.83;;;11.70;99.90;;;;;;5065212;28;20218;-80
2022/11/16 09:33:35;;;;;;;24.63;16.95;;;11.70;99.90;;;;;;5064087;28;20361;-82
2022/11/16 09:36:08;;;;;;;24.55;17.70;;;11.70;99.90;;;;;;5083541;28;20183;-79
2022/11/16 09:38:42;;;;;;;23.90;17.52;;;11.70;99.90;;;;;;5067304;28;20279;-79
2022/11/16 09:41:29;;;;;;;25.10;18.70;;;11.70;99.90;;;;;;5063023;28;20197;-80
2022/11/16 09:44:08;;;;;;;21.60;17.02;;;11.80;99.90;;;;;;5059404;28;20202;-79
2022/11/16 09:46:41;;;;;;;25.50;18.42;;;11.70;99.90;;;;;;5066448;28;20202;-79
2022/11/16 09:49:36;;;;;;;24.83;18.20;;;11.70;99.90;;;;;;5069919;28;20261;-80
2022/11/16 09:52:09;;;;;;;21.40;17.02;;;11.70;99.90;;;;;;5070092;28;20270;-81
2022/11/16 09:54:41;;;;;;;22.27;16.88;;;11.80;99.90;;;;;;5073392;28;20178;-80
2022/11/16 09:57:10;;;;;;;24.23;17.33;;;11.80;99.90;;;;;;5067640;28;20202;-81
2022/11/16 09:59:40;;;;;;;24.63;17.15;;;11.80;99.90;;;;;;5067665;28;20583;-79
2022/11/16 10:02:26;;;;;;;21.33;17.08;;;11.80;99.90;;;;;;5072003;28;20892;-81
2022/11/16 10:05:17;;;;;;;25.02;17.63;;;11.80;99.90;;;;;;5079036;28;20178;-80
2022/11/16 10:07:47;;;;;;;27.25;20.42;;;11.90;99.90;;;;;;5077381;28;20234;-82
2022/11/16 10:10:23;;;;;;;26.63;19.95;;;11.90;99.90;;;;;;5064944;28;20191;-81
2022/11/16 10:13:25;;;;;;;28.15;20.48;;;12.00;99.90;;;;;;5072083;28;20182;-81
2022/11/16 10:15:56;;;;;;;27.00;20.98;;;12.00;99.90;;;;;;5053677;28;20163;-80
2022/11/16 10:18:46;;;;;;;28.10;21.20;;;12.00;99.90;;;;;;5058372;28;20210;-83
2022/11/16 10:21:26;;;;;;;29.75;21.50;;;12.00;99.90;;;;;;5059516;28;20214;-81
2022/11/16 10:24:01;;;;;;;28.83;21.90;;;12.10;99.90;;;;;;5083576;28;20564;-79
2022/11/16 10:26:46;;;;;;;30.77;24.05;;;12.10;99.90;;;;;;5056014;28;20535;-79
2022/11/16 10:29:36;;;;;;;28.10;22.27;;;12.20;99.90;;;;;;5070792;28;20190;-80
2022/11/16 10:32:27;;;;;;;27.83;21.85;;;12.20;99.90;;;;;;5057284;28;20226;-80
2022/11/16 10:35:08;;;;;;;26.75;20.42;;;12.30;99.90;;;;;;5073255;28;20548;-80
2022/11/16 10:37:38;;;;;;;27.25;20.73;;;12.30;99.90;;;;;;5069246;28;20194;-81
2022/11/16 10:40:16;;;;;;;26.80;19.13;;;12.40;99.90;;;;;;5058867;28;20687;-80
2022/11/16 10:42:44;;;;;;;23.05;16.50;;;12.40;99.90;;;;;;5060040;28;20174;-79
2022/11/16 10:45:16;;;;;;;25.05;16.60;;;12.40;99.90;;;;;;5073601;28;20283;-80
2022/11/16 10:47:58;;;;;;;20.80;16.20;;;12.40;99.90;;;;;;5071865;28;20182;-80
2022/11/16 10:50:38;;;;;;;22.70;17.15;;;12.30;99.90;;;;;;5060186;28;20190;-80
2022/11/16 10:53:04;;;;;;;20.77;16.83;;;12.40;99.90;;;;;;5083883;28;20182;-80
2022/11/16 10:55:30;;;;;;;26.95;16.73;;;12.40;99.90;;;;;;5072242;28;20231;-81
2022/11/16 10:58:05;;;;;;;22.27;16.50;;;12.50;99.90;;;;;;5070899;28;20210;-80
2022/11/16 11:00:50;;;;;;;23.25;16.70;;;12.60;99.90;;;;;;5058676;28;20222;-81
2022/11/16 11:03:29;;;;;;;21.02;15.10;;;12.70;99.90;;;;;;5070749;28;20183;-80
2022/11/16 11:05:55;;;;;;;22.95;16.00;;;12.90;99.90;;;;;;5092305;28;20189;-80
2022/11/16 11:08:29;;;;;;;26.45;15.93;;;13.00;99.90;;;;;;5069683;28;20178;-80
2022/11/16 11:14:08;;;;;;;21.00;14.20;;;13.20;99.90;;;;;;5073311;28;20178;-81
2022/11/16 11:16:34;;;;;;;21.25;14.32;;;13.30;99.90;;;;;;5072957;28;20174;-80
2022/11/16 11:19:18;;;;;;;24.88;13.43;;;13.50;99.90;;;;;;5061532;28;20592;-82
2022/11/16 11:21:44;;;;;;;20.90;13.32;;;13.80;99.90;;;;;;5072803;28;20175;-80
2022/11/16 11:24:17;;;;;;;17.23;11.98;;;14.10;99.90;;;;;;5071410;28;20659;-80
2022/11/16 11:26:55;;;;;;;24.05;13.02;;;14.30;99.90;;;;;;5073419;28;20178;-80
2022/11/16 11:29:25;;;;;;;23.50;11.95;;;14.40;99.90;;;;;;5063429;28;20179;-81
2022/11/16 11:31:58;;;;;;;17.52;11.50;;;14.60;99.90;;;;;;5068834;28;20186;-80
2022/11/16 11:34:27;;;;;;;18.00;11.35;;;14.70;99.90;;;;;;5073114;28;20178;-81
2022/11/16 11:37:01;;;;;;;17.40;10.93;;;14.80;99.90;;;;;;5073104;28;20210;-83
2022/11/16 11:39:35;;;;;;;16.83;10.25;;;14.90;99.90;;;;;;5072979;28;20218;-85
2022/11/16 11:42:13;;;;;;;18.02;9.77;;;14.90;99.90;;;;;;5068383;28;20646;-82
2022/11/16 11:45:01;;;;;;;17.27;9.02;;;15.00;99.90;;;;;;5056488;28;20174;-80
2022/11/16 11:48:06;;;;;;;15.18;7.78;;;15.00;99.90;;;;;;5068591;28;20205;-80
2022/11/16 11:50:49;;;;;;;17.45;8.38;;;15.00;99.90;;;;;;5058270;28;20225;-80
2022/11/16 11:53:22;;;;;;;15.75;8.23;;;15.00;99.90;;;;;;5071724;28;20179;-80
2022/11/16 11:55:57;;;;;;;16.52;8.80;;;14.90;99.90;;;;;;5071996;28;20210;-81
2022/11/16 11:58:28;;;;;;;13.65;9.02;;;14.80;99.90;;;;;;5072114;28;20223;-79
2022/11/16 12:01:20;;;;;;;17.00;9.00;;;14.70;99.90;;;;;;5064021;28;20185;-83
2022/11/16 12:04:02;;;;;;;15.77;9.40;;;14.70;99.90;;;;;;5062908;28;20266;-80
2022/11/16 12:07:11;;;;;;;14.65;8.98;;;14.70;99.90;;;;;;5075841;28;20179;-83
2022/11/16 12:09:43;;;;;;;15.73;8.50;;;14.70;99.90;;;;;;5059013;28;20266;-80
2022/11/16 12:12:18;;;;;;;12.05;8.13;;;14.90;99.90;;;;;;5068970;28;20620;-81
2022/11/16 12:15:21;;;;;;;13.02;7.50;;;15.00;99.90;;;;;;5063715;28;20174;-82
2022/11/16 12:17:53;;;;;;;17.83;7.85;;;15.20;99.90;;;;;;5063631;28;20198;-81
2022/11/16 12:20:40;;;;;;;17.00;7.63;;;15.30;99.90;;;;;;5085676;28;20186;-81
2022/11/16 12:23:51;;;;;;;10.38;6.80;;;15.40;99.90;;;;;;5058225;28;20202;-79
2022/11/16 12:26:30;;;;;;;15.00;7.32;;;15.50;99.90;;;;;;5060302;28;20193;-80
2022/11/16 12:29:17;;;;;;;11.07;6.78;;;15.50;99.90;;;;;;5069908;28;20191;-83
2022/11/16 12:31:49;;;;;;;11.95;6.65;;;15.50;99.90;;;;;;5052951;28;20183;-80
2022/11/16 12:34:34;;;;;;;14.63;6.30;;;15.60;99.90;;;;;;5071824;28;20186;-81
2022/11/16 12:37:13;;;;;;;13.35;5.82;;;15.80;99.90;;;;;;5068673;28;20304;-80
2022/11/16 12:40:03;;;;;;;15.45;5.47;;;15.90;99.90;;;;;;5060646;28;20750;-80
2022/11/16 12:42:55;;;;;;;12.25;4.75;;;15.90;99.90;;;;;;5071070;28;20191;-78
2022/11/16 12:45:44;;;;;;;11.07;4.00;;;15.90;99.90;;;;;;5070285;28;20198;-79
2022/11/16 12:48:38;;;;;;;12.77;4.50;;;15.80;99.90;;;;;;5033476;28;20204;-80
2022/11/16 12:51:10;;;;;;;9.75;4.57;;;15.70;99.90;;;;;;5071638;28;20174;-80
2022/11/16 12:54:01;;;;;;;6.80;3.75;;;15.70;99.90;;;;;;5084657;28;20273;-81
2022/11/16 12:56:33;;;;;;;11.82;4.22;;;15.70;99.90;;;;;;5069945;28;20209;-80
2022/11/16 12:59:15;;;;;;;8.90;3.92;;;15.60;99.90;;;;;;5070764;28;20285;-81
2022/11/16 13:01:50;;;;;;;7.80;3.60;;;15.60;99.90;;;;;;5072515;28;20171;-80
2022/11/16 13:04:39;;;;;;;15.18;4.15;;;15.50;99.90;;;;;;5070429;28;20189;-80
2022/11/16 13:07:18;;;;;;;9.35;3.33;;;15.50;99.90;;;;;;5054038;28;20186;-79
2022/11/16 13:09:48;;;;;;;9.30;2.83;;;15.50;99.90;;;;;;5071509;28;20186;-81
2022/11/16 13:12:18;;;;;;;10.85;2.60;;;15.50;99.90;;;;;;5070830;28;20182;-80
2022/11/16 13:14:47;;;;;;;7.05;2.92;;;15.50;99.90;;;;;;5071953;28;20179;-80
2022/11/16 13:17:28;;;;;;;8.88;2.88;;;15.40;99.90;;;;;;5077654;28;20230;-79
2022/11/16 13:20:16;;;;;;;10.52;2.85;;;15.40;99.90;;;;;;5080775;28;20697;-80
2022/11/16 13:22:55;;;;;;;8.23;2.55;;;15.10;99.90;;;;;;5074277;28;20243;-80
2022/11/16 13:25:45;;;;;;;12.80;2.72;;;15.00;99.90;;;;;;5076897;28;20159;-79
2022/11/16 13:28:39;;;;;;;14.55;2.78;;;14.80;99.90;;;;;;5071834;28;20179;-80
2022/11/16 13:31:20;;;;;;;8.25;2.50;;;14.80;99.90;;;;;;5071120;28;20239;-78
2022/11/16 13:33:49;;;;;;;11.25;2.90;;;15.00;99.90;;;;;;5069655;28;20175;-79
2022/11/16 13:36:38;;;;;;;9.60;3.08;;;15.10;99.90;;;;;;5072446;28;20189;-80
2022/11/16 13:39:06;;;;;;;12.98;2.83;;;15.00;99.90;;;;;;5064917;28;20272;-79
2022/11/16 13:41:42;;;;;;;11.63;2.20;;;15.00;99.90;;;;;;5073471;28;20215;-78